F/V L'eden — FO4557 — position and weather

sailwx.info

Track history (hours):
 
Tides and Currents Weather Stations Pressure Air Temp Water Temp Dewpoint Dewpoint Depression Visibility Wind Speed Wind Dir Waves Ship Positions

F/V L'eden

Last reported at 2017-Sep-25 09:59 UTC. Time now 2017-Sep-25 19:06 UTC.
Position N 46°30' W 001°47'.

Length 12 m.

Type: Fishing. MMSI: 228112000.

Date/timePositionNaut miles runAvg speedWind from/ knotsBaromVisibWave heightAir tempDewpointWater temp
2017-Sep-25 09:59N 46°30' W 001°47'0 0.0
2017-Sep-25 09:29N 46°30' W 001°47'0 0.2
2017-Sep-25 09:01N 46°30' W 001°47'4 7.2
2017-Sep-25 08:31N 46°27' W 001°50'4 5.5
2017-Sep-25 07:51N 46°24' W 001°53'1 2.1
2017-Sep-25 07:29N 46°24' W 001°54'1 1.6
2017-Sep-25 06:56N 46°24' W 001°54'1 2.1
2017-Sep-25 06:30N 46°24' W 001°53'1 2.1
2017-Sep-25 05:58N 46°23' W 001°54'1 2.8
2017-Sep-25 05:29N 46°24' W 001°52'1 1.8
2017-Sep-25 05:01N 46°24' W 001°51'2 3.3
2017-Sep-25 04:29N 46°23' W 001°53'1 1.3
2017-Sep-25 04:01N 46°24' W 001°53'1 2.2
2017-Sep-25 03:30N 46°25' W 001°51'2 3.3
2017-Sep-25 02:58N 46°24' W 001°54'0 0.5
2017-Sep-25 02:30N 46°24' W 001°54'2 3.1
2017-Sep-25 02:01N 46°25' W 001°52'1 2.4
2017-Sep-25 01:29N 46°24' W 001°53'1 1.4
2017-Sep-25 01:01N 46°24' W 001°54'2 3.3
2017-Sep-25 00:30N 46°25' W 001°52'4 7.5
2017-Sep-25 00:01N 46°28' W 001°49'2 0.2
2017-Sep-24 10:04N 46°30' W 001°47'0 1.5
2017-Sep-24 09:59N 46°30' W 001°47'3 6.2
2017-Sep-24 09:30N 46°27' W 001°49'4 8.2
2017-Sep-24 09:00N 46°24' W 001°53'1 1.8
2017-Sep-24 08:30N 46°24' W 001°52'0 0.8
2017-Sep-24 08:00N 46°24' W 001°52'1 1.4
2017-Sep-24 07:28N 46°24' W 001°52'1 2.0
2017-Sep-24 06:57N 46°23' W 001°53'2 4.7
2017-Sep-24 06:30N 46°24' W 001°51'0 0.6
2017-Sep-24 06:00N 46°24' W 001°50'1 2.9
2017-Sep-24 05:30N 46°24' W 001°52'2 3.8
2017-Sep-24 05:00N 46°25' W 001°50'1 1.2
2017-Sep-24 04:30N 46°25' W 001°51'1 1.2
2017-Sep-24 04:00N 46°24' W 001°52'2 3.5
2017-Sep-24 03:30N 46°25' W 001°50'1 2.5
2017-Sep-24 03:00N 46°25' W 001°51'1 1.9
2017-Sep-24 02:30N 46°24' W 001°53'1 2.7
2017-Sep-24 02:00N 46°25' W 001°51'1 1.5
2017-Sep-24 01:30N 46°26' W 001°50'3 6.3
2017-Sep-24 01:00N 46°28' W 001°48'  
2017-Sep-21 07:55N 46°30' W 001°47'0 0.2
2017-Sep-21 07:30N 46°30' W 001°47'1 2.6
2017-Sep-21 07:00N 46°29' W 001°48'4 7.8
2017-Sep-21 06:29N 46°25' W 001°52'3 5.8
2017-Sep-21 06:00N 46°23' W 001°54'2 3.8
2017-Sep-21 05:30N 46°24' W 001°52'1 1.3
2017-Sep-21 04:59N 46°24' W 001°53'0 0.9
2017-Sep-21 04:30N 46°24' W 001°53'0 0.6
2017-Sep-21 03:58N 46°24' W 001°54'1 1.1
2017-Sep-21 03:30N 46°24' W 001°53'1 1.8
2017-Sep-21 03:00N 46°24' W 001°54'1 1.4
2017-Sep-21 02:28N 46°24' W 001°54'0 0.7
2017-Sep-21 01:58N 46°24' W 001°54'2 3.3
2017-Sep-21 01:30N 46°25' W 001°52'4 7.2
2017-Sep-21 01:00N 46°28' W 001°49'2 0.1
2017-Sep-20 08:25N 46°30' W 001°47'2 4.1
2017-Sep-20 08:00N 46°28' W 001°49'4 8.4
2017-Sep-20 07:30N 46°25' W 001°52'1 2.7
2017-Sep-20 06:58N 46°24' W 001°54'1 1.4
2017-Sep-20 06:29N 46°23' W 001°54'1 1.9
2017-Sep-20 06:00N 46°24' W 001°53'1 0.4
2017-Sep-20 03:13N 46°24' W 001°52'1 0.7
2017-Sep-20 01:23N 46°25' W 001°51'3 8.4
2017-Sep-20 01:00N 46°28' W 001°48'2 0.1
2017-Sep-19 10:09N 46°30' W 001°47'0 0.0
2017-Sep-19 09:41N 46°30' W 001°47'0 0.6
2017-Sep-19 09:30N 46°30' W 001°47'4 7.2
2017-Sep-19 09:01N 46°27' W 001°50'4 8.2
2017-Sep-19 08:30N 46°24' W 001°54'1 1.1
2017-Sep-19 07:58N 46°24' W 001°53'1 2.8
2017-Sep-19 07:31N 46°24' W 001°51'2 2.8
2017-Sep-19 06:39N 46°23' W 001°54'1 3.8
2017-Sep-19 06:30N 46°23' W 001°55'0 0.6
2017-Sep-19 05:54N 46°23' W 001°54'1 1.5
2017-Sep-19 05:29N 46°23' W 001°54'1 1.0
2017-Sep-19 04:41N 46°23' W 001°54'1 2.2
2017-Sep-19 04:21N 46°23' W 001°53'1 2.1
2017-Sep-19 03:59N 46°24' W 001°54'0 0.3
2017-Sep-19 03:24N 46°24' W 001°54'1 2.5
2017-Sep-19 03:01N 46°23' W 001°53'2 2.9
2017-Sep-19 02:29N 46°24' W 001°54'2 1.9
2017-Sep-19 01:39N 46°23' W 001°53'1 8.7
2017-Sep-19 01:30N 46°24' W 001°52'4 8.6
2017-Sep-19 01:01N 46°28' W 001°49'2 0.2
2017-Sep-18 09:38N 46°30' W 001°47'0 0.0
2017-Sep-18 09:29N 46°30' W 001°47'0 0.2
2017-Sep-18 09:00N 46°30' W 001°47'2 3.9
2017-Sep-18 08:30N 46°28' W 001°49'4 8.9
2017-Sep-18 08:00N 46°25' W 001°54'1 2.7
2017-Sep-18 07:30N 46°24' W 001°55'0 0.5
2017-Sep-18 07:00N 46°24' W 001°55'0 0.7
2017-Sep-18 06:30N 46°24' W 001°54'0 0.6
2017-Sep-18 06:00N 46°24' W 001°54'1 2.3
2017-Sep-18 05:27N 46°23' W 001°54'1 2.8
2017-Sep-18 05:00N 46°24' W 001°55'2 2.4
2017-Sep-18 04:22N 46°23' W 001°54'0 0.3
2017-Sep-18 03:58N 46°23' W 001°54'1 2.9
2017-Sep-18 03:31N 46°24' W 001°54'1 2.0
2017-Sep-18 02:54N 46°23' W 001°53'0 0.7
2017-Sep-18 02:29N 46°23' W 001°53'1 2.1
2017-Sep-18 01:59N 46°24' W 001°54'1 1.8
2017-Sep-18 01:30N 46°25' W 001°52'4 8.0
2017-Sep-18 01:00N 46°28' W 001°49'2 0.3
2017-Sep-17 16:17N 46°30' W 001°47'0 0.0
2017-Sep-17 08:38N 46°30' W 001°47'0 0.0
2017-Sep-17 08:27N 46°30' W 001°47'2 3.8
2017-Sep-17 08:00N 46°28' W 001°48'4 8.7
2017-Sep-17 07:30N 46°25' W 001°52'2 3.4
2017-Sep-17 06:54N 46°23' W 001°53'0 0.7
2017-Sep-17 06:23N 46°23' W 001°54'0 0.3
2017-Sep-17 05:56N 46°23' W 001°54'1 3.0
2017-Sep-17 05:28N 46°21' W 001°55'2 3.5
2017-Sep-17 05:00N 46°22' W 001°53'1 2.1
2017-Sep-17 04:26N 46°22' W 001°54'0 0.3
2017-Sep-17 03:55N 46°22' W 001°54'1 3.4
2017-Sep-17 03:29N 46°23' W 001°53'1 1.9
2017-Sep-17 02:55N 46°22' W 001°54'0 0.3
2017-Sep-17 02:16N 46°22' W 001°54'1 3.0
2017-Sep-17 01:57N 46°23' W 001°53'2 5.2
2017-Sep-17 01:30N 46°25' W 001°51'4 8.7
2017-Sep-17 01:00N 46°28' W 001°48'2 0.2
2017-Sep-16 18:30N 46°30' W 001°47'0 0.0
2017-Sep-16 10:55N 46°30' W 001°47'1 1.3
2017-Sep-16 10:30N 46°29' W 001°47'4 8.8
2017-Sep-16 10:00N 46°25' W 001°51'4 7.7
2017-Sep-16 09:30N 46°22' W 001°54'1 1.4
2017-Sep-16 09:00N 46°22' W 001°53'0 0.6
2017-Sep-16 08:30N 46°22' W 001°53'3 5.3
2017-Sep-16 07:59N 46°22' W 001°57'3 6.7
2017-Sep-16 07:29N 46°24' W 002°01'1 2.8
2017-Sep-16 06:58N 46°25' W 002°02'1 0.7
2017-Sep-16 06:03N 46°24' W 002°01'1 2.3
2017-Sep-16 05:44N 46°24' W 002°01'0 0.8
2017-Sep-16 05:30N 46°24' W 002°01'1 2.0
2017-Sep-16 05:00N 46°25' W 002°01'0 0.2
2017-Sep-16 03:46N 46°24' W 002°01'1 1.9
2017-Sep-16 03:30N 46°24' W 002°01'1 2.0
2017-Sep-16 03:00N 46°25' W 002°01'0 0.3
2017-Sep-16 02:03N 46°25' W 002°01'0 8.6
2017-Sep-16 02:00N 46°25' W 002°00'4 8.5
2017-Sep-16 01:30N 46°27' W 001°55'4 8.5
2017-Sep-16 01:00N 46°28' W 001°49'  
Track history (hours):
 
Tides and Currents Weather Stations Pressure Air Temp Water Temp Dewpoint Dewpoint Depression Visibility Wind Speed Wind Dir Waves Ship Positions

F/V L'eden

Last reported at 2017-Sep-25 09:59 UTC. Time now 2017-Sep-25 19:06 UTC.
Position N 46°30' W 001°47'.

Length 12 m.

Type: Fishing. MMSI: 228112000.

Date/timePositionNaut miles runAvg speedWind from/ knotsBaromVisibWave heightAir tempDewpointWater temp
2017-Sep-25 09:59N 46°30' W 001°47'0 0.0
2017-Sep-25 09:29N 46°30' W 001°47'0 0.2
2017-Sep-25 09:01N 46°30' W 001°47'4 7.2
2017-Sep-25 08:31N 46°27' W 001°50'4 5.5
2017-Sep-25 07:51N 46°24' W 001°53'1 2.1
2017-Sep-25 07:29N 46°24' W 001°54'1 1.6
2017-Sep-25 06:56N 46°24' W 001°54'1 2.1
2017-Sep-25 06:30N 46°24' W 001°53'1 2.1
2017-Sep-25 05:58N 46°23' W 001°54'1 2.8
2017-Sep-25 05:29N 46°24' W 001°52'1 1.8
2017-Sep-25 05:01N 46°24' W 001°51'2 3.3
2017-Sep-25 04:29N 46°23' W 001°53'1 1.3
2017-Sep-25 04:01N 46°24' W 001°53'1 2.2
2017-Sep-25 03:30N 46°25' W 001°51'2 3.3
2017-Sep-25 02:58N 46°24' W 001°54'0 0.5
2017-Sep-25 02:30N 46°24' W 001°54'2 3.1
2017-Sep-25 02:01N 46°25' W 001°52'1 2.4
2017-Sep-25 01:29N 46°24' W 001°53'1 1.4
2017-Sep-25 01:01N 46°24' W 001°54'2 3.3
2017-Sep-25 00:30N 46°25' W 001°52'4 7.5
2017-Sep-25 00:01N 46°28' W 001°49'2 0.2
2017-Sep-24 10:04N 46°30' W 001°47'0 1.5
2017-Sep-24 09:59N 46°30' W 001°47'3 6.2
2017-Sep-24 09:30N 46°27' W 001°49'4 8.2
2017-Sep-24 09:00N 46°24' W 001°53'1 1.8
2017-Sep-24 08:30N 46°24' W 001°52'0 0.8
2017-Sep-24 08:00N 46°24' W 001°52'1 1.4
2017-Sep-24 07:28N 46°24' W 001°52'1 2.0
2017-Sep-24 06:57N 46°23' W 001°53'2 4.7
2017-Sep-24 06:30N 46°24' W 001°51'0 0.6
2017-Sep-24 06:00N 46°24' W 001°50'1 2.9
2017-Sep-24 05:30N 46°24' W 001°52'2 3.8
2017-Sep-24 05:00N 46°25' W 001°50'1 1.2
2017-Sep-24 04:30N 46°25' W 001°51'1 1.2
2017-Sep-24 04:00N 46°24' W 001°52'2 3.5
2017-Sep-24 03:30N 46°25' W 001°50'1 2.5
2017-Sep-24 03:00N 46°25' W 001°51'1 1.9
2017-Sep-24 02:30N 46°24' W 001°53'1 2.7
2017-Sep-24 02:00N 46°25' W 001°51'1 1.5
2017-Sep-24 01:30N 46°26' W 001°50'3 6.3
2017-Sep-24 01:00N 46°28' W 001°48'  
2017-Sep-21 07:55N 46°30' W 001°47'0 0.2
2017-Sep-21 07:30N 46°30' W 001°47'1 2.6
2017-Sep-21 07:00N 46°29' W 001°48'4 7.8
2017-Sep-21 06:29N 46°25' W 001°52'3 5.8
2017-Sep-21 06:00N 46°23' W 001°54'2 3.8
2017-Sep-21 05:30N 46°24' W 001°52'1 1.3
2017-Sep-21 04:59N 46°24' W 001°53'0 0.9
2017-Sep-21 04:30N 46°24' W 001°53'0 0.6
2017-Sep-21 03:58N 46°24' W 001°54'1 1.1
2017-Sep-21 03:30N 46°24' W 001°53'1 1.8
2017-Sep-21 03:00N 46°24' W 001°54'1 1.4
2017-Sep-21 02:28N 46°24' W 001°54'0 0.7
2017-Sep-21 01:58N 46°24' W 001°54'2 3.3
2017-Sep-21 01:30N 46°25' W 001°52'4 7.2
2017-Sep-21 01:00N 46°28' W 001°49'2 0.1
2017-Sep-20 08:25N 46°30' W 001°47'2 4.1
2017-Sep-20 08:00N 46°28' W 001°49'4 8.4
2017-Sep-20 07:30N 46°25' W 001°52'1 2.7
2017-Sep-20 06:58N 46°24' W 001°54'1 1.4
2017-Sep-20 06:29N 46°23' W 001°54'1 1.9
2017-Sep-20 06:00N 46°24' W 001°53'1 0.4
2017-Sep-20 03:13N 46°24' W 001°52'1 0.7
2017-Sep-20 01:23N 46°25' W 001°51'3 8.4
2017-Sep-20 01:00N 46°28' W 001°48'2 0.1
2017-Sep-19 10:09N 46°30' W 001°47'0 0.0
2017-Sep-19 09:41N 46°30' W 001°47'0 0.6
2017-Sep-19 09:30N 46°30' W 001°47'4 7.2
2017-Sep-19 09:01N 46°27' W 001°50'4 8.2
2017-Sep-19 08:30N 46°24' W 001°54'1 1.1
2017-Sep-19 07:58N 46°24' W 001°53'1 2.8
2017-Sep-19 07:31N 46°24' W 001°51'2 2.8
2017-Sep-19 06:39N 46°23' W 001°54'1 3.8
2017-Sep-19 06:30N 46°23' W 001°55'0 0.6
2017-Sep-19 05:54N 46°23' W 001°54'1 1.5
2017-Sep-19 05:29N 46°23' W 001°54'1 1.0
2017-Sep-19 04:41N 46°23' W 001°54'1 2.2
2017-Sep-19 04:21N 46°23' W 001°53'1 2.1
2017-Sep-19 03:59N 46°24' W 001°54'0 0.3
2017-Sep-19 03:24N 46°24' W 001°54'1 2.5
2017-Sep-19 03:01N 46°23' W 001°53'2 2.9
2017-Sep-19 02:29N 46°24' W 001°54'2 1.9
2017-Sep-19 01:39N 46°23' W 001°53'1 8.7
2017-Sep-19 01:30N 46°24' W 001°52'4 8.6
2017-Sep-19 01:01N 46°28' W 001°49'2 0.2
2017-Sep-18 09:38N 46°30' W 001°47'0 0.0
2017-Sep-18 09:29N 46°30' W 001°47'0 0.2
2017-Sep-18 09:00N 46°30' W 001°47'2 3.9
2017-Sep-18 08:30N 46°28' W 001°49'4 8.9
2017-Sep-18 08:00N 46°25' W 001°54'1 2.7
2017-Sep-18 07:30N 46°24' W 001°55'0 0.5
2017-Sep-18 07:00N 46°24' W 001°55'0 0.7
2017-Sep-18 06:30N 46°24' W 001°54'0 0.6
2017-Sep-18 06:00N 46°24' W 001°54'1 2.3
2017-Sep-18 05:27N 46°23' W 001°54'1 2.8
2017-Sep-18 05:00N 46°24' W 001°55'2 2.4
2017-Sep-18 04:22N 46°23' W 001°54'0 0.3
2017-Sep-18 03:58N 46°23' W 001°54'1 2.9
2017-Sep-18 03:31N 46°24' W 001°54'1 2.0
2017-Sep-18 02:54N 46°23' W 001°53'0 0.7
2017-Sep-18 02:29N 46°23' W 001°53'1 2.1
2017-Sep-18 01:59N 46°24' W 001°54'1 1.8
2017-Sep-18 01:30N 46°25' W 001°52'4 8.0
2017-Sep-18 01:00N 46°28' W 001°49'2 0.3
2017-Sep-17 16:17N 46°30' W 001°47'0 0.0
2017-Sep-17 08:38N 46°30' W 001°47'0 0.0
2017-Sep-17 08:27N 46°30' W 001°47'2 3.8
2017-Sep-17 08:00N 46°28' W 001°48'4 8.7
2017-Sep-17 07:30N 46°25' W 001°52'2 3.4
2017-Sep-17 06:54N 46°23' W 001°53'0 0.7
2017-Sep-17 06:23N 46°23' W 001°54'0 0.3
2017-Sep-17 05:56N 46°23' W 001°54'1 3.0
2017-Sep-17 05:28N 46°21' W 001°55'2 3.5
2017-Sep-17 05:00N 46°22' W 001°53'1 2.1
2017-Sep-17 04:26N 46°22' W 001°54'0 0.3
2017-Sep-17 03:55N 46°22' W 001°54'1 3.4
2017-Sep-17 03:29N 46°23' W 001°53'1 1.9
2017-Sep-17 02:55N 46°22' W 001°54'0 0.3
2017-Sep-17 02:16N 46°22' W 001°54'1 3.0
2017-Sep-17 01:57N 46°23' W 001°53'2 5.2
2017-Sep-17 01:30N 46°25' W 001°51'4 8.7
2017-Sep-17 01:00N 46°28' W 001°48'2 0.2
2017-Sep-16 18:30N 46°30' W 001°47'0 0.0
2017-Sep-16 10:55N 46°30' W 001°47'1 1.3
2017-Sep-16 10:30N 46°29' W 001°47'4 8.8
2017-Sep-16 10:00N 46°25' W 001°51'4 7.7
2017-Sep-16 09:30N 46°22' W 001°54'1 1.4
2017-Sep-16 09:00N 46°22' W 001°53'0 0.6
2017-Sep-16 08:30N 46°22' W 001°53'3 5.3
2017-Sep-16 07:59N 46°22' W 001°57'3 6.7
2017-Sep-16 07:29N 46°24' W 002°01'1 2.8
2017-Sep-16 06:58N 46°25' W 002°02'1 0.7
2017-Sep-16 06:03N 46°24' W 002°01'1 2.3
2017-Sep-16 05:44N 46°24' W 002°01'0 0.8
2017-Sep-16 05:30N 46°24' W 002°01'1 2.0
2017-Sep-16 05:00N 46°25' W 002°01'0 0.2
2017-Sep-16 03:46N 46°24' W 002°01'1 1.9
2017-Sep-16 03:30N 46°24' W 002°01'1 2.0
2017-Sep-16 03:00N 46°25' W 002°01'0 0.3
2017-Sep-16 02:03N 46°25' W 002°01'0 8.6
2017-Sep-16 02:00N 46°25' W 002°00'4 8.5
2017-Sep-16 01:30N 46°27' W 001°55'4 8.5
2017-Sep-16 01:00N 46°28' W 001°49'  

Dump ship's entire track history